Time;durP1;ratioP1;P1;durP2;ratioP2;P2;SDS_P1;SDS_P2;PMS_P1;PMS_P2;Temp;Humidity;BMP_temperature;BMP_pressure;BME280_temperature;BME280_humidity;BME280_pressure;Samples;Min_cycle;Max_cycle;Signal;HPM_P1;HPM_P2
2021/09/03 00:00:35;;;;;;;26.87;22.07;;;14.20;99.90;;;;;;4984773;28;20217;-79
2021/09/03 00:03:04;;;;;;;29.80;21.87;;;14.20;99.90;;;;;;4977233;28;20308;-80
2021/09/03 00:05:31;;;;;;;32.93;22.33;;;14.20;99.90;;;;;;4987722;28;20225;-79
2021/09/03 00:07:58;;;;;;;25.00;20.87;;;14.10;99.90;;;;;;4987158;28;20191;-82
2021/09/03 00:10:25;;;;;;;27.77;21.40;;;14.10;99.90;;;;;;4988931;28;20289;-80
2021/09/03 00:12:51;;;;;;;31.20;23.27;;;14.00;99.90;;;;;;4987714;28;20199;-80
2021/09/03 00:15:18;;;;;;;28.23;21.90;;;14.10;99.90;;;;;;4989867;28;20305;-78
2021/09/03 00:17:46;;;;;;;32.53;23.00;;;14.10;99.90;;;;;;4985468;28;20207;-78
2021/09/03 00:20:16;;;;;;;31.90;23.87;;;14.10;99.90;;;;;;4988696;28;20309;-78
2021/09/03 00:22:44;;;;;;;28.37;23.13;;;14.00;99.90;;;;;;4983489;28;20666;-78
2021/09/03 00:25:12;;;;;;;30.23;22.90;;;14.00;99.90;;;;;;4986155;28;20211;-78
2021/09/03 00:27:40;;;;;;;30.63;23.40;;;14.00;99.90;;;;;;4986272;28;20737;-79
2021/09/03 00:30:08;;;;;;;31.37;24.10;;;14.00;99.90;;;;;;4988889;28;20632;-79
2021/09/03 00:32:35;;;;;;;33.23;23.37;;;14.00;99.90;;;;;;4983252;28;20662;-80
2021/09/03 00:35:03;;;;;;;30.77;22.97;;;13.90;99.90;;;;;;4987526;28;20195;-81
2021/09/03 00:37:31;;;;;;;34.63;23.73;;;13.90;99.90;;;;;;4986460;28;20310;-79
2021/09/03 00:39:58;;;;;;;29.23;23.73;;;13.90;99.90;;;;;;4986838;28;20207;-81
2021/09/03 00:42:25;;;;;;;31.57;24.77;;;13.90;99.90;;;;;;4989080;28;20317;-80
2021/09/03 00:44:52;;;;;;;30.23;23.80;;;13.90;99.90;;;;;;4986500;28;20302;-80
2021/09/03 00:47:19;;;;;;;33.63;24.97;;;13.90;99.90;;;;;;4987547;28;20289;-80
2021/09/03 00:49:46;;;;;;;31.90;24.13;;;13.80;99.90;;;;;;4985805;28;20282;-81
2021/09/03 00:52:13;;;;;;;29.43;23.83;;;13.80;99.90;;;;;;4988322;28;20605;-80
2021/09/03 00:54:42;;;;;;;30.97;24.60;;;13.70;99.90;;;;;;4985612;28;20715;-79
2021/09/03 00:57:09;;;;;;;28.13;23.07;;;13.70;99.90;;;;;;4987136;28;20650;-79
2021/09/03 00:59:36;;;;;;;32.27;23.87;;;13.70;99.90;;;;;;4985057;28;20286;-79
2021/09/03 01:02:03;;;;;;;33.67;24.67;;;13.70;99.90;;;;;;4984976;28;20329;-79
2021/09/03 01:04:30;;;;;;;32.13;25.70;;;13.70;99.90;;;;;;4983343;28;20317;-80
2021/09/03 01:06:57;;;;;;;35.50;24.97;;;13.70;99.90;;;;;;4983787;28;20210;-80
2021/09/03 01:09:24;;;;;;;32.80;24.50;;;13.60;99.90;;;;;;4986502;28;20294;-81
2021/09/03 01:11:52;;;;;;;33.80;25.37;;;13.60;99.90;;;;;;4985702;28;20591;-79
2021/09/03 01:14:20;;;;;;;33.17;25.33;;;13.60;99.90;;;;;;4986470;28;20213;-79
2021/09/03 01:16:48;;;;;;;34.37;25.43;;;13.60;99.90;;;;;;4986355;28;20195;-80
2021/09/03 01:19:17;;;;;;;34.50;25.40;;;13.60;99.90;;;;;;4987093;28;20650;-78
2021/09/03 01:21:50;;;;;;;33.03;26.37;;;13.60;99.90;;;;;;4984498;28;20226;-81
2021/09/03 01:24:17;;;;;;;37.70;24.80;;;13.50;99.90;;;;;;4987527;28;20673;-79
2021/09/03 01:26:44;;;;;;;36.43;26.67;;;13.50;99.90;;;;;;4985557;28;20287;-78
2021/09/03 01:29:12;;;;;;;35.73;25.87;;;13.40;99.90;;;;;;4991181;28;20191;-79
2021/09/03 01:31:39;;;;;;;35.00;26.03;;;13.40;99.90;;;;;;4989560;28;20290;-80
2021/09/03 01:34:06;;;;;;;37.40;25.73;;;13.40;99.90;;;;;;4990909;28;20229;-79
2021/09/03 01:36:33;;;;;;;32.53;24.40;;;13.40;99.90;;;;;;4986285;28;20358;-79
2021/09/03 01:39:02;;;;;;;34.07;25.90;;;13.40;99.90;;;;;;4987321;28;20278;-80
2021/09/03 01:41:29;;;;;;;34.23;26.47;;;13.30;99.90;;;;;;4989951;28;20698;-80
2021/09/03 01:43:56;;;;;;;38.07;27.20;;;13.30;99.90;;;;;;4989893;28;20281;-81
2021/09/03 01:46:23;;;;;;;37.20;27.00;;;13.40;99.90;;;;;;4987937;28;20203;-81
2021/09/03 01:48:53;;;;;;;39.17;28.53;;;13.40;99.90;;;;;;4989973;28;20195;-80
2021/09/03 01:51:20;;;;;;;38.40;28.13;;;13.30;99.90;;;;;;4987740;28;20222;-80
2021/09/03 01:53:49;;;;;;;38.20;27.33;;;13.30;99.90;;;;;;4982555;28;20270;-79
2021/09/03 01:56:18;;;;;;;36.93;26.57;;;13.30;99.90;;;;;;4986485;28;20246;-79
2021/09/03 01:58:45;;;;;;;40.53;27.77;;;13.30;99.90;;;;;;4989574;28;20202;-80
2021/09/03 02:01:12;;;;;;;35.73;26.43;;;13.20;99.90;;;;;;4986557;28;20223;-80
2021/09/03 02:03:39;;;;;;;36.63;26.10;;;13.20;99.90;;;;;;4988562;28;20226;-81
2021/09/03 02:06:06;;;;;;;36.63;26.73;;;13.20;99.90;;;;;;4985182;28;20207;-80
2021/09/03 02:08:32;;;;;;;41.50;26.97;;;13.20;99.90;;;;;;4990591;28;20213;-81
2021/09/03 02:10:59;;;;;;;41.83;28.53;;;13.20;99.90;;;;;;4988569;28;20230;-80
2021/09/03 02:13:28;;;;;;;41.50;27.63;;;13.10;99.90;;;;;;4990210;28;20289;-78
2021/09/03 02:15:55;;;;;;;37.93;29.07;;;13.10;99.90;;;;;;4988617;28;20286;-79
2021/09/03 02:18:22;;;;;;;40.77;27.60;;;13.10;99.90;;;;;;4988974;28;20205;-81
2021/09/03 02:20:49;;;;;;;39.20;28.00;;;13.10;99.90;;;;;;4983585;28;20225;-79
2021/09/03 02:23:15;;;;;;;40.93;28.53;;;13.00;99.90;;;;;;4989181;28;20561;-82
2021/09/03 02:25:42;;;;;;;45.47;29.47;;;13.00;99.90;;;;;;4990676;28;20308;-79
2021/09/03 02:28:09;;;;;;;37.27;27.07;;;13.00;99.90;;;;;;4989178;28;20199;-79
2021/09/03 02:30:37;;;;;;;38.73;27.90;;;13.00;99.90;;;;;;4988916;28;20205;-78
2021/09/03 02:33:05;;;;;;;42.03;27.10;;;12.90;99.90;;;;;;4988662;28;20264;-78
2021/09/03 02:35:32;;;;;;;35.00;26.13;;;12.90;99.90;;;;;;4990198;28;20229;-80
2021/09/03 02:37:59;;;;;;;44.80;27.83;;;12.80;99.90;;;;;;4989293;28;20278;-81
2021/09/03 02:40:28;;;;;;;41.13;27.13;;;12.90;99.90;;;;;;4990684;28;20201;-79
2021/09/03 02:42:55;;;;;;;37.67;26.67;;;12.80;99.90;;;;;;4988661;28;20222;-80
2021/09/03 02:45:23;;;;;;;39.70;26.93;;;12.70;99.90;;;;;;4989634;28;20289;-79
2021/09/03 02:47:52;;;;;;;38.43;25.60;;;12.60;99.90;;;;;;4989221;28;20231;-78
2021/09/03 02:50:19;;;;;;;39.70;26.83;;;12.60;99.90;;;;;;4991223;28;20226;-79
2021/09/03 02:52:46;;;;;;;40.10;26.10;;;12.60;99.90;;;;;;4980398;28;20306;-78
2021/09/03 02:55:13;;;;;;;39.13;25.67;;;12.60;99.90;;;;;;4987757;28;20211;-79
2021/09/03 02:57:40;;;;;;;40.57;25.67;;;12.50;99.90;;;;;;4987586;28;20205;-79
2021/09/03 03:00:09;;;;;;;43.50;28.97;;;12.50;99.90;;;;;;4990129;28;20199;-79
2021/09/03 03:02:36;;;;;;;39.00;26.67;;;12.60;99.90;;;;;;4987373;28;20768;-78
2021/09/03 03:05:05;;;;;;;45.73;28.40;;;12.60;99.90;;;;;;4985751;28;20295;-80
2021/09/03 03:07:32;;;;;;;39.37;26.73;;;12.60;99.90;;;;;;4987857;28;20191;-79
2021/09/03 03:09:59;;;;;;;46.53;28.57;;;12.60;99.90;;;;;;4988888;28;20281;-79
2021/09/03 03:12:26;;;;;;;38.33;27.30;;;12.60;99.90;;;;;;4984958;28;20963;-79
2021/09/03 03:14:53;;;;;;;38.23;26.33;;;12.50;99.90;;;;;;4987903;28;20226;-79
2021/09/03 03:17:20;;;;;;;39.77;25.33;;;12.40;99.90;;;;;;4985851;28;20286;-80
2021/09/03 03:19:47;;;;;;;37.33;25.53;;;12.40;99.90;;;;;;4988388;28;20602;-80
2021/09/03 03:22:16;;;;;;;37.20;23.77;;;12.30;99.90;;;;;;4987364;28;20624;-77
2021/09/03 03:24:43;;;;;;;39.30;26.87;;;12.20;99.90;;;;;;4989007;28;20233;-81
2021/09/03 03:27:10;;;;;;;40.63;24.90;;;12.30;99.90;;;;;;4989113;28;20203;-81
2021/09/03 03:29:40;;;;;;;42.50;29.17;;;12.30;99.90;;;;;;4986809;28;20697;-78
2021/09/03 03:32:07;;;;;;;48.03;27.83;;;12.30;99.90;;;;;;4990740;28;20202;-80
2021/09/03 03:34:34;;;;;;;40.03;26.97;;;12.30;99.90;;;;;;4987244;28;20230;-80
2021/09/03 03:37:04;;;;;;;36.83;25.03;;;12.30;99.90;;;;;;4988774;28;20199;-80
2021/09/03 03:39:34;;;;;;;39.10;26.27;;;12.20;99.90;;;;;;4988759;28;20286;-79
2021/09/03 03:42:03;;;;;;;44.77;27.93;;;12.30;99.90;;;;;;4986621;28;20237;-80
2021/09/03 03:44:30;;;;;;;48.00;28.93;;;12.30;99.90;;;;;;4979375;28;20215;-80
2021/09/03 03:47:00;;;;;;;43.17;30.10;;;12.40;99.90;;;;;;4982633;28;20281;-79
2021/09/03 03:49:27;;;;;;;47.43;31.37;;;12.40;99.90;;;;;;4988706;28;20281;-79
2021/09/03 03:51:54;;;;;;;41.13;27.10;;;12.40;99.90;;;;;;4986260;28;20209;-79
2021/09/03 03:54:23;;;;;;;40.10;26.30;;;12.30;99.90;;;;;;4986894;28;20835;-80
2021/09/03 03:56:54;;;;;;;43.43;27.10;;;12.30;99.90;;;;;;4987692;28;20234;-80
2021/09/03 03:59:21;;;;;;;41.57;27.23;;;12.30;99.90;;;;;;4989030;28;21094;-79
2021/09/03 04:01:48;;;;;;;43.73;26.67;;;12.20;99.90;;;;;;4983380;28;20327;-82
2021/09/03 04:04:15;;;;;;;38.67;25.33;;;12.20;99.90;;;;;;4988564;28;20235;-81
2021/09/03 04:06:45;;;;;;;38.53;25.63;;;12.20;99.90;;;;;;4983683;28;20238;-79
2021/09/03 04:09:15;;;;;;;45.50;26.77;;;12.10;99.90;;;;;;4987560;28;20290;-80
2021/09/03 04:11:42;;;;;;;37.07;26.10;;;12.10;99.90;;;;;;4985995;28;20310;-82
2021/09/03 04:14:10;;;;;;;38.73;25.87;;;12.10;99.90;;;;;;4988391;28;20289;-81
2021/09/03 04:16:37;;;;;;;40.93;26.27;;;12.10;99.90;;;;;;4987750;28;20198;-82
2021/09/03 04:19:05;;;;;;;36.10;24.60;;;12.00;99.90;;;;;;4988430;28;20198;-82
2021/09/03 04:21:32;;;;;;;40.03;25.47;;;12.00;99.90;;;;;;4985464;28;20677;-82
2021/09/03 04:23:59;;;;;;;36.40;24.20;;;11.90;99.90;;;;;;4989977;28;20194;-82
2021/09/03 04:26:26;;;;;;;43.57;26.70;;;11.90;99.90;;;;;;4986425;28;20201;-79
2021/09/03 04:28:53;;;;;;;38.53;26.67;;;11.90;99.90;;;;;;4989129;28;20550;-81
2021/09/03 04:31:22;;;;;;;40.30;25.23;;;11.90;99.90;;;;;;4985159;28;20253;-80
2021/09/03 04:33:49;;;;;;;35.63;24.87;;;11.90;99.90;;;;;;4988062;28;20261;-82
2021/09/03 04:36:19;;;;;;;40.00;26.87;;;11.90;99.90;;;;;;4987955;28;20205;-81
2021/09/03 04:38:46;;;;;;;44.13;26.83;;;11.80;99.90;;;;;;4982854;28;20203;-83
2021/09/03 04:41:21;;;;;;;41.50;27.27;;;11.80;99.90;;;;;;4984090;28;20290;-82
2021/09/03 04:43:48;;;;;;;39.67;26.53;;;11.80;99.90;;;;;;4988070;28;20236;-81
2021/09/03 04:46:15;;;;;;;40.33;26.43;;;11.80;99.90;;;;;;4986657;28;20195;-82
2021/09/03 04:48:44;;;;;;;41.77;26.43;;;11.80;99.90;;;;;;4983700;28;20638;-80
2021/09/03 04:51:11;;;;;;;49.23;26.67;;;11.80;99.90;;;;;;4986533;28;20202;-81
2021/09/03 04:53:39;;;;;;;48.37;27.53;;;11.80;99.90;;;;;;4986942;28;20734;-80
2021/09/03 04:56:09;;;;;;;44.80;26.97;;;11.90;99.90;;;;;;4984193;28;20210;-79
2021/09/03 04:58:36;;;;;;;44.60;26.27;;;11.90;99.90;;;;;;4984884;28;20195;-81
2021/09/03 05:01:03;;;;;;;42.43;25.13;;;11.90;99.90;;;;;;4989486;28;20231;-75
2021/09/03 05:03:31;;;;;;;36.43;25.47;;;11.80;99.90;;;;;;4990261;28;20339;-77
2021/09/03 05:05:59;;;;;;;38.60;25.47;;;11.80;99.90;;;;;;4983119;28;20609;-80
2021/09/03 05:08:26;;;;;;;44.47;26.50;;;11.80;99.90;;;;;;4988799;28;20226;-78
2021/09/03 05:10:58;;;;;;;36.07;23.53;;;11.80;99.90;;;;;;4990137;28;20199;-76
2021/09/03 05:13:25;;;;;;;40.17;24.10;;;11.80;99.90;;;;;;4990472;28;20277;-77
2021/09/03 05:15:54;;;;;;;43.13;26.90;;;11.70;99.90;;;;;;4990037;28;20657;-77
2021/09/03 05:18:21;;;;;;;39.47;23.83;;;11.80;99.90;;;;;;4992283;28;20286;-77
2021/09/03 05:20:49;;;;;;;33.30;22.13;;;11.80;99.90;;;;;;4989211;28;20290;-77
2021/09/03 05:23:18;;;;;;;34.70;22.67;;;11.80;99.90;;;;;;4991597;28;20632;-78
2021/09/03 05:25:47;;;;;;;35.10;21.20;;;11.80;99.90;;;;;;4988867;28;20230;-78
2021/09/03 05:28:14;;;;;;;34.47;22.10;;;11.80;99.90;;;;;;4981320;28;20723;-78
2021/09/03 05:30:42;;;;;;;35.20;23.00;;;11.80;99.90;;;;;;4982841;28;20230;-79
2021/09/03 05:33:09;;;;;;;40.67;24.50;;;11.80;99.90;;;;;;4987147;28;20199;-76
2021/09/03 05:35:36;;;;;;;47.77;27.70;;;11.90;99.90;;;;;;4989105;28;20197;-78
2021/09/03 05:38:05;;;;;;;45.47;28.33;;;12.10;99.90;;;;;;4986988;28;20194;-74
2021/09/03 05:40:34;;;;;;;44.73;27.30;;;12.10;99.90;;;;;;4987584;28;20195;-75
2021/09/03 05:43:04;;;;;;;43.42;31.58;;;12.20;99.90;;;;;;4980664;28;20476;-76
2021/09/03 05:45:31;;;;;;;45.73;29.93;;;12.30;99.90;;;;;;4988552;28;20199;-78
2021/09/03 05:48:00;;;;;;;44.50;29.60;;;12.40;99.90;;;;;;4985477;28;20539;-78
2021/09/03 05:50:28;;;;;;;52.67;30.07;;;12.50;99.90;;;;;;4987881;28;20296;-79
2021/09/03 05:52:55;;;;;;;42.23;28.50;;;12.50;99.90;;;;;;4986979;28;20253;-80
2021/09/03 05:55:22;;;;;;;39.87;27.13;;;12.60;99.90;;;;;;4986375;28;20652;-78
2021/09/03 05:57:53;;;;;;;43.20;28.90;;;12.60;99.90;;;;;;4990948;28;20203;-78
2021/09/03 06:00:20;;;;;;;42.60;29.07;;;12.60;99.90;;;;;;4982661;28;20207;-79
2021/09/03 06:02:47;;;;;;;47.93;30.63;;;12.60;99.90;;;;;;4986968;28;20234;-81
2021/09/03 06:05:14;;;;;;;52.13;31.87;;;12.60;99.90;;;;;;4983210;28;20356;-77
2021/09/03 06:07:41;;;;;;;47.63;30.37;;;12.70;99.90;;;;;;4982975;28;20225;-82
2021/09/03 06:10:10;;;;;;;45.20;30.80;;;12.70;99.90;;;;;;4987061;28;20207;-84
2021/09/03 06:12:37;;;;;;;46.80;31.63;;;12.80;99.90;;;;;;4986925;28;20273;-80
2021/09/03 06:15:06;;;;;;;47.90;32.83;;;12.80;99.90;;;;;;4990293;28;20639;-82
2021/09/03 06:17:36;;;;;;;48.77;33.53;;;12.90;99.90;;;;;;4989595;28;20688;-79
2021/09/03 06:20:04;;;;;;;52.07;33.53;;;12.90;99.90;;;;;;4989470;28;20234;-80
2021/09/03 06:22:31;;;;;;;54.33;34.17;;;13.00;99.90;;;;;;4987316;28;20238;-84
2021/09/03 06:25:01;;;;;;;45.73;32.07;;;13.00;99.90;;;;;;4988246;28;20265;-82
2021/09/03 06:27:30;;;;;;;50.93;32.87;;;13.10;99.90;;;;;;4984239;28;20199;-78
2021/09/03 06:29:57;;;;;;;53.07;33.77;;;13.20;99.90;;;;;;4986917;28;20281;-81
2021/09/03 06:32:27;;;;;;;50.17;34.50;;;13.30;99.90;;;;;;4986826;28;20218;-81
2021/09/03 06:35:08;;;;;;;47.17;34.77;;;13.40;99.90;;;;;;4989760;28;20269;-82
2021/09/03 06:37:35;;;;;;;55.23;36.00;;;13.40;99.90;;;;;;4983558;28;20289;-83
2021/09/03 06:40:03;;;;;;;50.20;35.13;;;13.50;99.90;;;;;;4987519;28;20198;-83
2021/09/03 06:42:33;;;;;;;53.23;35.37;;;13.50;99.90;;;;;;4985480;28;20265;-83
2021/09/03 06:45:00;;;;;;;51.13;35.63;;;13.60;99.90;;;;;;4992106;28;20209;-83
2021/09/03 06:47:29;;;;;;;51.67;34.70;;;13.60;99.90;;;;;;4987617;28;20203;-84
2021/09/03 06:49:59;;;;;;;45.53;35.17;;;13.70;99.90;;;;;;4991490;28;20195;-82
2021/09/03 06:52:30;;;;;;;50.47;36.00;;;13.80;99.90;;;;;;4988369;28;20697;-83
2021/09/03 06:55:00;;;;;;;48.80;35.83;;;13.90;99.90;;;;;;4989853;28;20217;-79
2021/09/03 06:57:27;;;;;;;51.07;35.47;;;13.90;99.90;;;;;;4986756;28;20205;-83
2021/09/03 06:59:55;;;;;;;49.07;36.07;;;14.10;99.90;;;;;;4985260;28;20223;-82
2021/09/03 07:02:22;;;;;;;49.70;34.50;;;14.10;99.90;;;;;;4986983;28;20806;-82
2021/09/03 07:04:52;;;;;;;45.93;36.27;;;14.20;99.90;;;;;;4989502;28;20701;-82
2021/09/03 07:07:19;;;;;;;47.37;34.17;;;14.20;99.90;;;;;;4986539;28;20211;-84
2021/09/03 07:09:47;;;;;;;49.07;34.93;;;14.30;99.90;;;;;;4981844;28;20227;-82
2021/09/03 07:12:14;;;;;;;48.40;35.43;;;14.40;99.90;;;;;;4985003;28;20953;-82
2021/09/03 07:14:44;;;;;;;46.77;33.60;;;14.50;99.90;;;;;;4987282;28;20238;-84
2021/09/03 07:17:14;;;;;;;48.40;35.40;;;14.60;99.90;;;;;;4987994;28;20305;-82
2021/09/03 07:19:41;;;;;;;45.08;33.83;;;15.40;99.90;;;;;;4987035;28;20286;-81
2021/09/03 07:22:11;;;;;;;35.40;29.70;;;16.50;99.90;;;;;;4986700;28;20289;-81
2021/09/03 07:24:38;;;;;;;36.17;27.83;;;16.80;99.90;;;;;;4987832;28;20227;-81
2021/09/03 07:27:05;;;;;;;32.80;26.77;;;17.00;99.90;;;;;;4989515;28;20198;-80
2021/09/03 07:29:32;;;;;;;34.78;26.52;;;17.10;99.90;;;;;;4988689;28;20235;-81
2021/09/03 07:31:59;;;;;;;34.08;26.48;;;18.10;99.90;;;;;;4987203;28;20285;-79
2021/09/03 07:34:26;;;;;;;33.42;25.35;;;18.60;99.90;;;;;;4988249;28;20234;-79
2021/09/03 07:36:53;;;;;;;34.38;24.45;;;19.10;99.90;;;;;;4985808;28;20201;-78
2021/09/03 07:39:21;;;;;;;31.98;25.10;;;18.90;99.90;;;;;;4986341;28;20222;-79
2021/09/03 07:41:49;;;;;;;31.80;25.60;;;18.20;99.90;;;;;;4985680;28;20211;-80
2021/09/03 07:44:17;;;;;;;28.67;22.42;;;19.20;99.90;;;;;;4982279;28;20238;-79
2021/09/03 07:46:44;;;;;;;29.77;23.25;;;20.80;99.90;;;;;;4986128;28;20237;-79
2021/09/03 07:49:11;;;;;;;28.73;21.58;;;21.10;99.90;;;;;;4985022;28;20223;-80
2021/09/03 07:51:38;;;;;;;28.38;22.83;;;21.80;99.90;;;;;;4983693;28;20307;-80
2021/09/03 07:54:05;;;;;;;23.85;20.70;;;21.80;99.90;;;;;;4987463;28;20554;-80
2021/09/03 07:56:33;;;;;;;26.42;23.27;;;21.70;99.90;;;;;;4983321;28;20298;-79
2021/09/03 07:59:01;;;;;;;28.50;24.13;;;20.20;99.90;;;;;;4983547;28;21285;-78
2021/09/03 08:01:27;;;;;;;31.95;24.33;;;19.40;99.90;;;;;;4984048;28;20222;-79
2021/09/03 08:03:55;;;;;;;26.42;23.52;;;19.90;99.90;;;;;;4982800;28;20233;-78
2021/09/03 08:06:22;;;;;;;28.40;23.75;;;20.30;99.90;;;;;;4982370;28;20249;-79
2021/09/03 08:08:49;;;;;;;33.50;23.73;;;19.80;99.90;;;;;;4983807;28;20298;-79
2021/09/03 08:11:16;;;;;;;24.88;22.02;;;20.00;99.90;;;;;;4978531;28;20214;-79
2021/09/03 08:13:45;;;;;;;26.67;21.55;;;20.30;99.90;;;;;;4982506;28;20209;-79
2021/09/03 08:16:11;;;;;;;24.85;21.13;;;20.60;99.90;;;;;;4982258;28;20201;-79
2021/09/03 08:18:42;;;;;;;27.13;21.77;;;20.80;99.90;;;;;;4980945;28;20293;-77
2021/09/03 08:21:09;;;;;;;27.17;21.98;;;20.80;99.90;;;;;;4982772;28;20199;-77
2021/09/03 08:23:36;;;;;;;26.30;21.45;;;21.60;99.90;;;;;;4984624;28;20725;-79
2021/09/03 08:26:04;;;;;;;25.65;21.35;;;21.90;99.90;;;;;;4983155;28;20199;-79
2021/09/03 08:28:32;;;;;;;25.92;21.33;;;21.70;99.90;;;;;;4988255;28;20210;-78
2021/09/03 08:31:00;;;;;;;26.80;20.95;;;21.90;99.90;;;;;;4982338;28;20591;-74
2021/09/03 08:33:27;;;;;;;25.45;21.92;;;21.60;99.90;;;;;;4984545;28;20202;-77
2021/09/03 08:35:54;;;;;;;26.48;22.58;;;22.30;99.90;;;;;;4985026;28;20214;-76
2021/09/03 08:38:21;;;;;;;28.42;22.45;;;22.00;99.90;;;;;;4988246;28;20309;-76
2021/09/03 08:40:49;;;;;;;25.48;21.58;;;21.10;99.90;;;;;;4989313;28;20218;-77
2021/09/03 08:43:20;;;;;;;23.95;21.10;;;21.30;99.90;;;;;;4981092;28;20218;-78
2021/09/03 08:45:47;;;;;;;23.08;20.08;;;21.50;99.90;;;;;;4983963;28;20268;-79
2021/09/03 08:48:19;;;;;;;23.20;18.50;;;22.00;99.90;;;;;;4981725;28;20198;-79
2021/09/03 08:50:46;;;;;;;23.42;18.70;;;21.90;99.90;;;;;;4985830;28;20519;-78
2021/09/03 08:53:16;;;;;;;24.15;18.80;;;21.40;99.90;;;;;;4990392;28;20225;-77
2021/09/03 08:55:45;;;;;;;25.02;19.17;;;21.60;99.90;;;;;;4988817;28;20199;-77
2021/09/03 08:58:12;;;;;;;24.48;19.10;;;22.70;99.90;;;;;;4988183;28;20191;-76
2021/09/03 09:00:38;;;;;;;19.23;17.23;;;23.30;99.90;;;;;;4990393;28;20186;-81
2021/09/03 09:03:10;;;;;;;23.67;20.23;;;22.60;99.90;;;;;;4990748;28;20295;-78
2021/09/03 09:06:02;;;;;;;20.80;17.73;;;21.60;99.90;;;;;;4992284;28;20684;-79
2021/09/03 09:08:31;;;;;;;22.15;16.50;;;23.30;99.90;;;;;;4960891;28;20291;-76
2021/09/03 09:11:00;;;;;;;19.38;16.30;;;25.40;99.90;;;;;;4987896;28;20222;-80
2021/09/03 09:13:30;;;;;;;22.60;17.58;;;23.90;99.90;;;;;;4990534;28;20286;-80
2021/09/03 09:16:02;;;;;;;22.67;17.45;;;22.80;99.90;;;;;;4992116;28;20290;-82
2021/09/03 09:18:36;;;;;;;21.48;17.02;;;22.30;99.90;;;;;;4991188;28;20202;-76
2021/09/03 09:21:10;;;;;;;20.67;16.55;;;23.20;99.90;;;;;;4993427;28;20277;-73
2021/09/03 09:23:42;;;;;;;19.90;17.00;;;23.70;99.90;;;;;;4990165;28;20237;-74
2021/09/03 09:26:09;;;;;;;22.65;16.25;;;23.60;99.90;;;;;;4983532;28;20203;-75
2021/09/03 09:28:35;;;;;;;20.13;16.88;;;23.60;99.90;;;;;;4989466;28;20242;-79
2021/09/03 09:31:03;;;;;;;19.70;17.58;;;23.60;99.90;;;;;;4985915;28;20282;-80
2021/09/03 09:33:30;;;;;;;22.55;18.23;;;23.40;99.90;;;;;;4988712;28;20293;-78
2021/09/03 09:35:59;;;;;;;19.95;17.02;;;22.70;99.90;;;;;;4992999;28;20201;-79
2021/09/03 09:38:30;;;;;;;19.80;17.48;;;21.40;99.90;;;;;;4989182;28;20738;-81
2021/09/03 09:40:58;;;;;;;19.02;14.98;;;22.30;99.90;;;;;;4993167;28;20278;-77
2021/09/03 09:43:30;;;;;;;20.50;16.85;;;22.90;99.90;;;;;;4987504;28;20199;-80
2021/09/03 09:46:13;;;;;;;20.92;17.15;;;22.80;99.90;;;;;;4991195;28;20246;-75
2021/09/03 09:48:57;;;;;;;23.70;17.73;;;22.20;99.90;;;;;;4989321;28;20571;-78
2021/09/03 09:51:28;;;;;;;17.73;15.73;;;22.50;99.90;;;;;;4987987;28;20226;-79
2021/09/03 09:53:58;;;;;;;19.85;16.00;;;22.50;99.90;;;;;;4986235;28;20705;-77
2021/09/03 09:56:26;;;;;;;23.52;18.10;;;22.30;99.90;;;;;;4985494;28;20314;-78
2021/09/03 09:58:55;;;;;;;21.92;16.88;;;21.90;99.90;;;;;;4988688;28;20313;-77
2021/09/03 10:01:22;;;;;;;18.42;16.52;;;21.40;99.90;;;;;;4988219;28;20313;-76
2021/09/03 10:03:50;;;;;;;22.65;18.10;;;20.80;99.90;;;;;;4985990;28;20234;-75
2021/09/03 10:06:18;;;;;;;27.58;19.80;;;20.90;99.90;;;;;;4989881;28;20201;-78
2021/09/03 10:08:46;;;;;;;22.10;15.80;;;21.00;99.90;;;;;;4988734;28;20201;-79
2021/09/03 10:11:16;;;;;;;18.17;15.05;;;21.10;99.90;;;;;;4986910;28;20199;-82
2021/09/03 10:13:43;;;;;;;20.10;15.80;;;21.20;99.90;;;;;;4989911;28;20294;-81
2021/09/03 10:16:10;;;;;;;17.65;15.63;;;21.00;99.90;;;;;;4992209;28;20282;-82
2021/09/03 10:18:39;;;;;;;18.08;15.27;;;21.10;99.90;;;;;;4990397;28;20205;-78
2021/09/03 10:21:07;;;;;;;17.23;15.07;;;21.10;99.90;;;;;;4990967;28;20191;-81
2021/09/03 10:23:56;;;;;;;18.70;15.98;;;21.20;99.90;;;;;;4981174;28;20286;-78
2021/09/03 10:26:28;;;;;;;22.98;15.65;;;21.00;99.90;;;;;;4988428;28;20235;-81
2021/09/03 10:29:15;;;;;;;17.50;13.43;;;21.20;99.90;;;;;;4994030;28;20226;-77
2021/09/03 10:32:17;;;;;;;15.93;14.25;;;21.80;99.90;;;;;;4997978;28;20314;-80
2021/09/03 10:34:51;;;;;;;15.90;13.40;;;21.50;99.90;;;;;;4988174;28;20194;-77
2021/09/03 10:37:28;;;;;;;14.85;13.23;;;21.60;99.90;;;;;;4992030;28;20281;-81
2021/09/03 10:39:58;;;;;;;19.30;15.13;;;21.40;99.90;;;;;;4990066;28;20206;-72
2021/09/03 10:42:49;;;;;;;19.15;14.02;;;21.50;99.90;;;;;;4987438;28;20697;-74
2021/09/03 10:45:22;;;;;;;17.58;13.02;;;21.80;99.90;;;;;;4986649;28;20230;-75
2021/09/03 10:47:58;;;;;;;16.80;13.43;;;21.90;99.90;;;;;;4990275;28;20203;-75
2021/09/03 10:50:27;;;;;;;24.58;13.48;;;22.00;99.90;;;;;;4989458;28;20342;-76
2021/09/03 10:53:30;;;;;;;17.50;12.63;;;22.40;99.90;;;;;;4989345;28;20282;-75
2021/09/03 10:56:12;;;;;;;17.98;13.60;;;22.10;99.90;;;;;;4986322;28;20578;-71
2021/09/03 10:58:58;;;;;;;17.02;14.30;;;22.20;99.90;;;;;;4985989;28;20573;-71
2021/09/03 11:01:53;;;;;;;16.08;13.75;;;22.00;99.90;;;;;;4986791;28;20206;-75
2021/09/03 11:04:23;;;;;;;18.13;13.77;;;22.20;99.90;;;;;;4985147;28;20732;-71
2021/09/03 11:06:56;;;;;;;17.65;14.15;;;22.00;99.90;;;;;;4987284;28;20195;-78
2021/09/03 11:09:25;;;;;;;17.38;12.82;;;22.20;99.90;;;;;;4982930;28;20857;-75
2021/09/03 11:11:54;;;;;;;16.67;12.85;;;22.30;99.90;;;;;;4981377;28;20762;-73
2021/09/03 11:14:24;;;;;;;15.65;11.80;;;22.10;99.90;;;;;;4985024;28;20290;-73
2021/09/03 11:16:54;;;;;;;16.63;12.48;;;22.60;99.90;;;;;;4991044;28;20206;-81
2021/09/03 11:19:24;;;;;;;14.45;11.65;;;22.70;99.90;;;;;;4991681;28;20701;-82
2021/09/03 11:21:53;;;;;;;16.25;11.57;;;22.40;99.90;;;;;;4990795;28;20314;-83
2021/09/03 11:24:22;;;;;;;18.75;11.68;;;22.70;99.90;;;;;;4983167;28;20211;-78
2021/09/03 11:26:51;;;;;;;14.70;11.65;;;22.70;99.90;;;;;;4991101;28;20230;-82
2021/09/03 11:29:24;;;;;;;16.10;11.65;;;22.70;99.90;;;;;;4988998;28;20687;-82
2021/09/03 11:32:01;;;;;;;16.98;13.55;;;23.00;99.90;;;;;;4991595;28;20195;-83
2021/09/03 11:34:46;;;;;;;14.32;11.07;;;23.00;99.90;;;;;;4987423;28;20195;-84
2021/09/03 11:37:22;;;;;;;14.30;10.98;;;22.90;99.90;;;;;;4993761;28;20263;-84
2021/09/03 11:39:50;;;;;;;14.02;11.32;;;23.00;99.90;;;;;;4995213;28;20642;-85
2021/09/03 11:42:24;;;;;;;16.35;12.55;;;22.80;99.90;;;;;;4991594;28;20214;-84
2021/09/03 11:44:55;;;;;;;19.15;13.32;;;22.70;99.90;;;;;;4990154;28;20764;-79
2021/09/03 11:47:32;;;;;;;12.70;10.80;;;22.80;99.90;;;;;;4986128;28;20206;-79
2021/09/03 11:50:01;;;;;;;15.63;13.20;;;23.00;99.90;;;;;;4990191;28;20273;-84
2021/09/03 11:52:30;;;;;;;10.80;9.68;;;23.00;99.90;;;;;;4994212;28;20654;-85
2021/09/03 11:54:57;;;;;;;12.00;8.60;;;23.30;99.90;;;;;;4991537;28;20238;-82
2021/09/03 11:57:25;;;;;;;12.70;9.07;;;23.80;99.90;;;;;;4991941;28;20202;-82
2021/09/03 12:00:02;;;;;;;12.82;11.40;;;23.90;99.90;;;;;;4988767;28;20194;-79
2021/09/03 12:02:30;;;;;;;12.88;11.18;;;23.50;99.90;;;;;;4983393;28;20209;-78
2021/09/03 12:04:58;;;;;;;12.73;10.10;;;23.10;99.90;;;;;;4987688;28;20218;-79
2021/09/03 12:07:27;;;;;;;14.70;10.25;;;23.20;99.90;;;;;;4985858;28;20207;-78
2021/09/03 12:09:57;;;;;;;14.68;10.35;;;23.30;99.90;;;;;;4984764;28;20316;-83
2021/09/03 12:12:26;;;;;;;11.52;9.00;;;23.70;99.90;;;;;;4987893;28;20713;-83
2021/09/03 12:14:56;;;;;;;14.10;10.60;;;24.00;99.90;;;;;;4986912;28;20202;-80
2021/09/03 12:17:36;;;;;;;10.73;8.43;;;23.60;99.90;;;;;;4985345;28;20277;-83
2021/09/03 12:20:13;;;;;;;9.13;8.13;;;23.70;99.90;;;;;;4990699;28;20199;-80
2021/09/03 12:22:48;;;;;;;13.00;8.15;;;23.80;99.90;;;;;;4990449;28;20199;-83
2021/09/03 12:25:15;;;;;;;7.97;7.18;;;24.20;99.90;;;;;;4990647;28;20222;-83
2021/09/03 12:27:42;;;;;;;8.57;7.50;;;24.10;99.90;;;;;;4989138;28;20225;-83
2021/09/03 12:30:13;;;;;;;11.65;8.90;;;24.00;99.90;;;;;;4989571;28;20202;-81
2021/09/03 12:32:41;;;;;;;10.35;8.35;;;23.80;99.90;;;;;;4991350;28;20285;-86
2021/09/03 12:35:11;;;;;;;9.77;8.73;;;23.80;99.90;;;;;;4987871;28;20234;-84
2021/09/03 12:37:38;;;;;;;11.05;8.98;;;23.70;99.90;;;;;;4991698;28;20218;-85